Aviation Digital Data Service (ADDS)

Output produced by METARs form (0352 UTC 20 September 2020)
found at http://aviationweather.gov/metar/data/
 
KSNS 200253Z AUTO 33011KT 10SM CLR 17/14 A2992 RMK AO2 SLP140 T01720139 57001
KSNS 192339Z 2000/2024 31014KT P6SM FEW006 SCT010 
     TEMPO 2000/2002 BKN009 
     FM200300 30006KT P6SM FEW012 
     FM201000 VRB03KT P6SM BKN010 
     FM201700 VRB04KT P6SM BKN012 
     FM201900 31007KT P6SM SKC
       
KMRY 200254Z AUTO 24006KT 10SM OVC009 A2994 RMK AO2 CIG 008V012 SLPNO 55000 $
KMRY 200301Z 2003/2024 VRB05KT P6SM OVC009 
     FM200900 VRB03KT 4SM BR OVC004 
     FM201600 VRB03KT P6SM FEW008 SCT011 
     FM202000 29008KT P6SM SKC
       
KSJC 200253Z 34009KT 10SM FEW030 SCT065 22/13 A2990 RMK AO2 SLP124 FU FEW030 FU SCT065 T02170133 53003
KSJC 192339Z 2000/2024 33011KT P6SM FEW024 
     FM200400 32007KT P6SM FEW015 
     FM200700 VRB03KT P6SM FEW200 
     FM201200 VRB04KT P6SM SCT015 
     FM201700 35005KT P6SM FEW015 
     FM202200 32009KT P6SM FEW025
       
KRHV 200347Z 00000KT 10SM SKC 21/14 A2992
KSFO 200256Z 30015KT 10SM FEW009 FEW200 18/14 A2989 RMK AO2 SLP122 T01830139 56005
KSFO 200305Z 2003/2106 29015KT P6SM FEW009 
     FM200600 28009KT P6SM FEW008 SCT015 
     FM201100 VRB03KT P6SM FEW007 BKN011 
     FM201630 VRB05KT P6SM FEW012 
     FM202100 31012KT P6SM FEW015 
     FM210400 30008KT P6SM FEW006 SCT011
       
KLVK 200253Z AUTO 28006KT 10SM CLR 22/13 A2989 RMK AO2 SLP117 T02170128 53003
KLVK 192339Z 2000/2024 03006KT P6SM SKC 
     FM200400 VRB03KT P6SM SKC 
     FM201200 VRB03KT P6SM SCT015 
     FM201700 VRB05KT P6SM SKC 
     FM202200 28007KT P6SM SKC
       
KMCE 200253Z AUTO 00000KT 10SM CLR 23/12 A2985 RMK AO2 SLP109 T02330117 55001
KMCE 192335Z 2000/2024 33010KT P6SM SKC 
     FM200200 34006KT P6SM SKC 
     FM200400 VRB03KT P6SM SKC 
     FM202000 32007KT P6SM SKC